sensor_id;sensor_type;location;lat;lon;timestamp;P1;durP1;ratioP1;P2;durP2;ratioP2
8001;SDS011;4046;48.774;8.732;2024-01-30T00:01:51;2.60;;;2.40;;
8001;SDS011;4046;48.774;8.732;2024-01-30T00:14:14;2.13;;;2.03;;
8001;SDS011;4046;48.774;8.732;2024-01-30T00:16:39;2.40;;;2.30;;
8001;SDS011;4046;48.774;8.732;2024-01-30T00:22:14;2.07;;;1.97;;
8001;SDS011;4046;48.774;8.732;2024-01-30T00:28:28;2.47;;;2.27;;
8001;SDS011;4046;48.774;8.732;2024-01-30T00:31:01;2.17;;;2.07;;
8001;SDS011;4046;48.774;8.732;2024-01-30T00:33:50;2.27;;;2.17;;
8001;SDS011;4046;48.774;8.732;2024-01-30T00:36:16;1.73;;;1.63;;
8001;SDS011;4046;48.774;8.732;2024-01-30T00:42:16;2.00;;;1.90;;
8001;SDS011;4046;48.774;8.732;2024-01-30T00:45:54;2.27;;;2.10;;
8001;SDS011;4046;48.774;8.732;2024-01-30T00:48:29;2.07;;;1.97;;
8001;SDS011;4046;48.774;8.732;2024-01-30T00:50:54;2.13;;;2.03;;
8001;SDS011;4046;48.774;8.732;2024-01-30T00:54:21;1.90;;;1.80;;
8001;SDS011;4046;48.774;8.732;2024-01-30T00:57:09;2.00;;;1.90;;
8001;SDS011;4046;48.774;8.732;2024-01-30T01:03:36;2.00;;;1.90;;
8001;SDS011;4046;48.774;8.732;2024-01-30T01:10:31;1.93;;;1.83;;
8001;SDS011;4046;48.774;8.732;2024-01-30T01:16:19;2.17;;;2.07;;
8001;SDS011;4046;48.774;8.732;2024-01-30T01:22:29;2.23;;;2.13;;
8001;SDS011;4046;48.774;8.732;2024-01-30T01:25:01;2.17;;;2.07;;
8001;SDS011;4046;48.774;8.732;2024-01-30T01:28:20;1.93;;;1.83;;
8001;SDS011;4046;48.774;8.732;2024-01-30T01:31:50;2.13;;;2.03;;
8001;SDS011;4046;48.774;8.732;2024-01-30T01:37:50;2.10;;;2.00;;
8001;SDS011;4046;48.774;8.732;2024-01-30T01:44:40;1.87;;;1.77;;
8001;SDS011;4046;48.774;8.732;2024-01-30T01:47:15;2.00;;;1.90;;
8001;SDS011;4046;48.774;8.732;2024-01-30T01:50:39;1.90;;;1.80;;
8001;SDS011;4046;48.774;8.732;2024-01-30T01:53:08;2.10;;;2.00;;
8001;SDS011;4046;48.774;8.732;2024-01-30T01:55:42;2.03;;;1.93;;
8001;SDS011;4046;48.774;8.732;2024-01-30T01:59:09;2.10;;;2.00;;
8001;SDS011;4046;48.774;8.732;2024-01-30T02:02:36;1.80;;;1.70;;
8001;SDS011;4046;48.774;8.732;2024-01-30T02:05:07;1.90;;;1.80;;
8001;SDS011;4046;48.774;8.732;2024-01-30T02:07:33;1.93;;;1.83;;
8001;SDS011;4046;48.774;8.732;2024-01-30T02:10:08;2.13;;;2.03;;
8001;SDS011;4046;48.774;8.732;2024-01-30T02:12:54;2.10;;;2.00;;
8001;SDS011;4046;48.774;8.732;2024-01-30T02:18:27;1.93;;;1.83;;
8001;SDS011;4046;48.774;8.732;2024-01-30T02:21:14;1.90;;;1.80;;
8001;SDS011;4046;48.774;8.732;2024-01-30T02:23:50;1.70;;;1.60;;
8001;SDS011;4046;48.774;8.732;2024-01-30T02:26:57;1.90;;;1.80;;
8001;SDS011;4046;48.774;8.732;2024-01-30T02:29:32;2.13;;;2.03;;
8001;SDS011;4046;48.774;8.732;2024-01-30T02:32:14;1.60;;;1.50;;
8001;SDS011;4046;48.774;8.732;2024-01-30T02:35:14;1.97;;;1.87;;
8001;SDS011;4046;48.774;8.732;2024-01-30T02:37:42;1.90;;;1.80;;
8001;SDS011;4046;48.774;8.732;2024-01-30T02:40:50;2.03;;;1.93;;
8001;SDS011;4046;48.774;8.732;2024-01-30T02:44:05;2.20;;;2.00;;
8001;SDS011;4046;48.774;8.732;2024-01-30T02:47:16;1.90;;;1.80;;
8001;SDS011;4046;48.774;8.732;2024-01-30T02:50:30;1.80;;;1.70;;
8001;SDS011;4046;48.774;8.732;2024-01-30T02:53:41;1.90;;;1.80;;
8001;SDS011;4046;48.774;8.732;2024-01-30T02:57:08;1.80;;;1.70;;
8001;SDS011;4046;48.774;8.732;2024-01-30T03:00:25;1.90;;;1.80;;
8001;SDS011;4046;48.774;8.732;2024-01-30T03:02:50;1.80;;;1.70;;
8001;SDS011;4046;48.774;8.732;2024-01-30T03:05:16;1.90;;;1.80;;
8001;SDS011;4046;48.774;8.732;2024-01-30T03:10:53;2.20;;;2.00;;
8001;SDS011;4046;48.774;8.732;2024-01-30T03:16:43;1.83;;;1.73;;
8001;SDS011;4046;48.774;8.732;2024-01-30T03:20:31;1.90;;;1.80;;
8001;SDS011;4046;48.774;8.732;2024-01-30T03:23:03;1.70;;;1.60;;
8001;SDS011;4046;48.774;8.732;2024-01-30T03:32:25;1.67;;;1.57;;
8001;SDS011;4046;48.774;8.732;2024-01-30T03:38:58;1.90;;;1.80;;
8001;SDS011;4046;48.774;8.732;2024-01-30T03:41:24;1.93;;;1.83;;
8001;SDS011;4046;48.774;8.732;2024-01-30T03:43:58;1.70;;;1.60;;
8001;SDS011;4046;48.774;8.732;2024-01-30T03:47:35;1.73;;;1.63;;
8001;SDS011;4046;48.774;8.732;2024-01-30T03:53:03;1.70;;;1.60;;
8001;SDS011;4046;48.774;8.732;2024-01-30T03:55:29;1.90;;;1.80;;
8001;SDS011;4046;48.774;8.732;2024-01-30T03:57:55;1.70;;;1.60;;
8001;SDS011;4046;48.774;8.732;2024-01-30T04:00:38;1.70;;;1.60;;
8001;SDS011;4046;48.774;8.732;2024-01-30T04:03:50;1.80;;;1.70;;
8001;SDS011;4046;48.774;8.732;2024-01-30T04:07:07;1.90;;;1.80;;
8001;SDS011;4046;48.774;8.732;2024-01-30T04:09:32;1.83;;;1.73;;
8001;SDS011;4046;48.774;8.732;2024-01-30T04:12:32;1.80;;;1.70;;
8001;SDS011;4046;48.774;8.732;2024-01-30T04:15:06;1.87;;;1.77;;
8001;SDS011;4046;48.774;8.732;2024-01-30T04:20:55;1.70;;;1.60;;
8001;SDS011;4046;48.774;8.732;2024-01-30T04:23:48;1.70;;;1.60;;
8001;SDS011;4046;48.774;8.732;2024-01-30T04:29:43;1.67;;;1.57;;
8001;SDS011;4046;48.774;8.732;2024-01-30T04:35:43;1.90;;;1.80;;
8001;SDS011;4046;48.774;8.732;2024-01-30T04:41:48;1.60;;;1.50;;
8001;SDS011;4046;48.774;8.732;2024-01-30T04:45:27;1.67;;;1.57;;
8001;SDS011;4046;48.774;8.732;2024-01-30T04:51:04;1.50;;;1.40;;
8001;SDS011;4046;48.774;8.732;2024-01-30T05:01:01;1.80;;;1.70;;
8001;SDS011;4046;48.774;8.732;2024-01-30T05:03:54;1.83;;;1.73;;
8001;SDS011;4046;48.774;8.732;2024-01-30T05:07:08;1.63;;;1.53;;
8001;SDS011;4046;48.774;8.732;2024-01-30T05:10:07;1.63;;;1.53;;
8001;SDS011;4046;48.774;8.732;2024-01-30T05:13:03;1.50;;;1.40;;
8001;SDS011;4046;48.774;8.732;2024-01-30T05:15:29;1.60;;;1.50;;
8001;SDS011;4046;48.774;8.732;2024-01-30T05:25:03;1.50;;;1.37;;
8001;SDS011;4046;48.774;8.732;2024-01-30T05:27:53;1.67;;;1.57;;
8001;SDS011;4046;48.774;8.732;2024-01-30T05:30:40;1.83;;;1.73;;
8001;SDS011;4046;48.774;8.732;2024-01-30T05:33:24;1.50;;;1.40;;
8001;SDS011;4046;48.774;8.732;2024-01-30T05:39:03;1.60;;;1.50;;
8001;SDS011;4046;48.774;8.732;2024-01-30T05:41:29;1.60;;;1.50;;
8001;SDS011;4046;48.774;8.732;2024-01-30T05:44:00;1.50;;;1.40;;
8001;SDS011;4046;48.774;8.732;2024-01-30T05:48:09;1.83;;;1.73;;
8001;SDS011;4046;48.774;8.732;2024-01-30T05:50:40;1.57;;;1.47;;
8001;SDS011;4046;48.774;8.732;2024-01-30T05:53:50;1.73;;;1.63;;
8001;SDS011;4046;48.774;8.732;2024-01-30T05:56:16;1.80;;;1.70;;
8001;SDS011;4046;48.774;8.732;2024-01-30T05:59:29;1.80;;;1.70;;
8001;SDS011;4046;48.774;8.732;2024-01-30T06:02:34;1.50;;;1.40;;
8001;SDS011;4046;48.774;8.732;2024-01-30T06:05:27;1.70;;;1.60;;
8001;SDS011;4046;48.774;8.732;2024-01-30T06:08:02;1.40;;;1.30;;
8001;SDS011;4046;48.774;8.732;2024-01-30T06:11:14;1.43;;;1.33;;
8001;SDS011;4046;48.774;8.732;2024-01-30T06:13:40;1.70;;;1.60;;
8001;SDS011;4046;48.774;8.732;2024-01-30T06:16:09;1.90;;;1.80;;
8001;SDS011;4046;48.774;8.732;2024-01-30T06:25:41;1.83;;;1.73;;
8001;SDS011;4046;48.774;8.732;2024-01-30T06:31:33;1.60;;;1.50;;
8001;SDS011;4046;48.774;8.732;2024-01-30T06:35:07;1.60;;;1.50;;
8001;SDS011;4046;48.774;8.732;2024-01-30T06:37:33;1.83;;;1.73;;
8001;SDS011;4046;48.774;8.732;2024-01-30T06:40:08;1.47;;;1.37;;
8001;SDS011;4046;48.774;8.732;2024-01-30T06:42:49;1.50;;;1.40;;
8001;SDS011;4046;48.774;8.732;2024-01-30T06:59:10;1.70;;;1.60;;
8001;SDS011;4046;48.774;8.732;2024-01-30T07:01:35;1.20;;;1.03;;
8001;SDS011;4046;48.774;8.732;2024-01-30T07:04:00;1.57;;;1.47;;
8001;SDS011;4046;48.774;8.732;2024-01-30T07:09:43;1.53;;;1.43;;
8001;SDS011;4046;48.774;8.732;2024-01-30T07:12:12;1.60;;;1.50;;
8001;SDS011;4046;48.774;8.732;2024-01-30T07:15:37;1.60;;;1.50;;
8001;SDS011;4046;48.774;8.732;2024-01-30T07:18:09;1.80;;;1.70;;
8001;SDS011;4046;48.774;8.732;2024-01-30T07:27:49;1.63;;;1.53;;
8001;SDS011;4046;48.774;8.732;2024-01-30T07:30:15;1.50;;;1.40;;
8001;SDS011;4046;48.774;8.732;2024-01-30T07:32:42;1.63;;;1.53;;
8001;SDS011;4046;48.774;8.732;2024-01-30T07:35:11;1.70;;;1.60;;
8001;SDS011;4046;48.774;8.732;2024-01-30T07:37:37;1.60;;;1.50;;
8001;SDS011;4046;48.774;8.732;2024-01-30T07:43:44;1.60;;;1.50;;
8001;SDS011;4046;48.774;8.732;2024-01-30T07:49:41;1.60;;;1.50;;
8001;SDS011;4046;48.774;8.732;2024-01-30T07:55:47;1.30;;;1.17;;
8001;SDS011;4046;48.774;8.732;2024-01-30T07:58:13;1.90;;;1.80;;
8001;SDS011;4046;48.774;8.732;2024-01-30T08:00:38;1.60;;;1.50;;
8001;SDS011;4046;48.774;8.732;2024-01-30T08:07:10;1.43;;;1.33;;
8001;SDS011;4046;48.774;8.732;2024-01-30T08:09:36;1.63;;;1.53;;
8001;SDS011;4046;48.774;8.732;2024-01-30T08:12:02;1.60;;;1.50;;
8001;SDS011;4046;48.774;8.732;2024-01-30T08:14:28;1.60;;;1.50;;
8001;SDS011;4046;48.774;8.732;2024-01-30T08:17:34;1.77;;;1.67;;
8001;SDS011;4046;48.774;8.732;2024-01-30T08:20:13;1.50;;;1.40;;
8001;SDS011;4046;48.774;8.732;2024-01-30T08:22:44;1.70;;;1.60;;
8001;SDS011;4046;48.774;8.732;2024-01-30T08:25:43;1.60;;;1.50;;
8001;SDS011;4046;48.774;8.732;2024-01-30T08:31:48;2.07;;;1.87;;
8001;SDS011;4046;48.774;8.732;2024-01-30T08:35:19;1.50;;;1.40;;
8001;SDS011;4046;48.774;8.732;2024-01-30T08:37:45;1.50;;;1.40;;
8001;SDS011;4046;48.774;8.732;2024-01-30T08:40:16;1.50;;;1.40;;
8001;SDS011;4046;48.774;8.732;2024-01-30T08:43:33;1.70;;;1.60;;
8001;SDS011;4046;48.774;8.732;2024-01-30T08:46:42;1.70;;;1.50;;
8001;SDS011;4046;48.774;8.732;2024-01-30T08:49:58;1.53;;;1.43;;
8001;SDS011;4046;48.774;8.732;2024-01-30T08:52:43;1.60;;;1.50;;
8001;SDS011;4046;48.774;8.732;2024-01-30T08:55:53;1.63;;;1.53;;
8001;SDS011;4046;48.774;8.732;2024-01-30T08:59:26;1.70;;;1.60;;
8001;SDS011;4046;48.774;8.732;2024-01-30T09:01:52;1.33;;;1.23;;
8001;SDS011;4046;48.774;8.732;2024-01-30T09:04:20;1.70;;;1.60;;
8001;SDS011;4046;48.774;8.732;2024-01-30T09:13:56;1.50;;;1.40;;
8001;SDS011;4046;48.774;8.732;2024-01-30T09:27:45;1.53;;;1.43;;
8001;SDS011;4046;48.774;8.732;2024-01-30T09:30:11;1.60;;;1.50;;
8001;SDS011;4046;48.774;8.732;2024-01-30T09:32:39;1.80;;;1.70;;
8001;SDS011;4046;48.774;8.732;2024-01-30T09:35:32;1.30;;;1.20;;
8001;SDS011;4046;48.774;8.732;2024-01-30T09:40:35;1.63;;;1.53;;
8001;SDS011;4046;48.774;8.732;2024-01-30T09:46:48;1.60;;;1.50;;
8001;SDS011;4046;48.774;8.732;2024-01-30T09:55:44;1.67;;;1.57;;
8001;SDS011;4046;48.774;8.732;2024-01-30T09:58:13;1.40;;;1.30;;
8001;SDS011;4046;48.774;8.732;2024-01-30T10:00:39;1.60;;;1.50;;
8001;SDS011;4046;48.774;8.732;2024-01-30T10:13:53;1.53;;;1.43;;
8001;SDS011;4046;48.774;8.732;2024-01-30T10:16:18;1.83;;;1.73;;
8001;SDS011;4046;48.774;8.732;2024-01-30T10:18:44;1.63;;;1.53;;
8001;SDS011;4046;48.774;8.732;2024-01-30T10:21:52;1.77;;;1.67;;
8001;SDS011;4046;48.774;8.732;2024-01-30T10:24:26;1.80;;;1.70;;
8001;SDS011;4046;48.774;8.732;2024-01-30T10:27:05;1.67;;;1.57;;
8001;SDS011;4046;48.774;8.732;2024-01-30T10:29:53;1.50;;;1.40;;
8001;SDS011;4046;48.774;8.732;2024-01-30T10:32:19;1.60;;;1.50;;
8001;SDS011;4046;48.774;8.732;2024-01-30T10:35:04;1.90;;;1.80;;
8001;SDS011;4046;48.774;8.732;2024-01-30T10:38:02;1.60;;;1.50;;
8001;SDS011;4046;48.774;8.732;2024-01-30T10:48:14;1.60;;;1.50;;
8001;SDS011;4046;48.774;8.732;2024-01-30T10:54:21;1.93;;;1.83;;
8001;SDS011;4046;48.774;8.732;2024-01-30T11:00:13;1.70;;;1.60;;
8001;SDS011;4046;48.774;8.732;2024-01-30T11:02:56;1.70;;;1.60;;
8001;SDS011;4046;48.774;8.732;2024-01-30T11:06:10;1.53;;;1.43;;
8001;SDS011;4046;48.774;8.732;2024-01-30T11:09:06;1.50;;;1.40;;
8001;SDS011;4046;48.774;8.732;2024-01-30T11:14:50;1.63;;;1.53;;
8001;SDS011;4046;48.774;8.732;2024-01-30T11:18:10;1.60;;;1.50;;
8001;SDS011;4046;48.774;8.732;2024-01-30T11:20:59;1.43;;;1.33;;
8001;SDS011;4046;48.774;8.732;2024-01-30T11:23:54;1.30;;;1.20;;
8001;SDS011;4046;48.774;8.732;2024-01-30T11:31:07;1.60;;;1.50;;
8001;SDS011;4046;48.774;8.732;2024-01-30T11:33:52;1.47;;;1.37;;
8001;SDS011;4046;48.774;8.732;2024-01-30T11:36:21;1.50;;;1.40;;
8001;SDS011;4046;48.774;8.732;2024-01-30T11:38:57;1.60;;;1.50;;
8001;SDS011;4046;48.774;8.732;2024-01-30T11:41:30;1.53;;;1.43;;
8001;SDS011;4046;48.774;8.732;2024-01-30T11:43:57;1.50;;;1.40;;
8001;SDS011;4046;48.774;8.732;2024-01-30T11:46:48;1.60;;;1.50;;
8001;SDS011;4046;48.774;8.732;2024-01-30T11:49:19;1.40;;;1.30;;
8001;SDS011;4046;48.774;8.732;2024-01-30T11:51:54;1.60;;;1.50;;
8001;SDS011;4046;48.774;8.732;2024-01-30T11:54:20;1.70;;;1.60;;
8001;SDS011;4046;48.774;8.732;2024-01-30T11:56:58;1.70;;;1.60;;
8001;SDS011;4046;48.774;8.732;2024-01-30T12:03:55;1.67;;;1.57;;
8001;SDS011;4046;48.774;8.732;2024-01-30T12:06:59;1.50;;;1.40;;
8001;SDS011;4046;48.774;8.732;2024-01-30T12:09:25;1.50;;;1.40;;
8001;SDS011;4046;48.774;8.732;2024-01-30T12:11:56;1.60;;;1.50;;
8001;SDS011;4046;48.774;8.732;2024-01-30T12:14:27;1.83;;;1.73;;
8001;SDS011;4046;48.774;8.732;2024-01-30T12:17:30;1.50;;;1.40;;
8001;SDS011;4046;48.774;8.732;2024-01-30T12:20:23;1.73;;;1.63;;
8001;SDS011;4046;48.774;8.732;2024-01-30T12:22:59;1.70;;;1.60;;
8001;SDS011;4046;48.774;8.732;2024-01-30T12:25:33;1.50;;;1.40;;
8001;SDS011;4046;48.774;8.732;2024-01-30T12:28:29;1.53;;;1.43;;
8001;SDS011;4046;48.774;8.732;2024-01-30T12:31:04;1.50;;;1.40;;
8001;SDS011;4046;48.774;8.732;2024-01-30T12:34:01;1.60;;;1.50;;
8001;SDS011;4046;48.774;8.732;2024-01-30T12:36:28;1.50;;;1.40;;
8001;SDS011;4046;48.774;8.732;2024-01-30T12:39:00;1.50;;;1.40;;
8001;SDS011;4046;48.774;8.732;2024-01-30T12:43:19;1.50;;;1.40;;
8001;SDS011;4046;48.774;8.732;2024-01-30T12:45:14;1.40;;;1.30;;
8001;SDS011;4046;48.774;8.732;2024-01-30T12:48:18;1.60;;;1.50;;
8001;SDS011;4046;48.774;8.732;2024-01-30T12:57:21;1.60;;;1.50;;
8001;SDS011;4046;48.774;8.732;2024-01-30T13:03:28;1.60;;;1.50;;
8001;SDS011;4046;48.774;8.732;2024-01-30T13:06:23;1.67;;;1.57;;
8001;SDS011;4046;48.774;8.732;2024-01-30T13:08:55;1.70;;;1.60;;
8001;SDS011;4046;48.774;8.732;2024-01-30T13:11:24;1.40;;;1.30;;
8001;SDS011;4046;48.774;8.732;2024-01-30T13:14:16;1.63;;;1.50;;
8001;SDS011;4046;48.774;8.732;2024-01-30T13:16:43;1.53;;;1.43;;
8001;SDS011;4046;48.774;8.732;2024-01-30T13:19:29;1.67;;;1.57;;
8001;SDS011;4046;48.774;8.732;2024-01-30T13:22:08;1.50;;;1.40;;
8001;SDS011;4046;48.774;8.732;2024-01-30T13:24:34;1.50;;;1.40;;
8001;SDS011;4046;48.774;8.732;2024-01-30T13:27:09;1.60;;;1.50;;
8001;SDS011;4046;48.774;8.732;2024-01-30T13:30:03;1.70;;;1.60;;
8001;SDS011;4046;48.774;8.732;2024-01-30T13:32:50;1.50;;;1.40;;
8001;SDS011;4046;48.774;8.732;2024-01-30T13:35:16;1.50;;;1.40;;
8001;SDS011;4046;48.774;8.732;2024-01-30T13:37:51;1.63;;;1.53;;
8001;SDS011;4046;48.774;8.732;2024-01-30T13:40:23;1.87;;;1.77;;
8001;SDS011;4046;48.774;8.732;2024-01-30T13:42:50;1.83;;;1.60;;
8001;SDS011;4046;48.774;8.732;2024-01-30T13:45:26;1.63;;;1.53;;
8001;SDS011;4046;48.774;8.732;2024-01-30T13:48:30;1.90;;;1.80;;
8001;SDS011;4046;48.774;8.732;2024-01-30T13:50:56;1.50;;;1.40;;
8001;SDS011;4046;48.774;8.732;2024-01-30T13:53:35;1.50;;;1.40;;
8001;SDS011;4046;48.774;8.732;2024-01-30T13:56:09;1.43;;;1.33;;
8001;SDS011;4046;48.774;8.732;2024-01-30T13:58:39;1.77;;;1.67;;
8001;SDS011;4046;48.774;8.732;2024-01-30T14:01:07;1.67;;;1.43;;
8001;SDS011;4046;48.774;8.732;2024-01-30T14:03:47;1.70;;;1.60;;
8001;SDS011;4046;48.774;8.732;2024-01-30T14:06:25;1.63;;;1.53;;
8001;SDS011;4046;48.774;8.732;2024-01-30T14:08:51;1.40;;;1.30;;
8001;SDS011;4046;48.774;8.732;2024-01-30T14:11:17;1.90;;;1.80;;
8001;SDS011;4046;48.774;8.732;2024-01-30T14:13:42;1.50;;;1.40;;
8001;SDS011;4046;48.774;8.732;2024-01-30T14:16:12;1.57;;;1.47;;
8001;SDS011;4046;48.774;8.732;2024-01-30T14:18:58;1.67;;;1.57;;
8001;SDS011;4046;48.774;8.732;2024-01-30T14:21:56;1.60;;;1.50;;
8001;SDS011;4046;48.774;8.732;2024-01-30T14:24:28;1.40;;;1.30;;
8001;SDS011;4046;48.774;8.732;2024-01-30T14:27:16;1.63;;;1.53;;
8001;SDS011;4046;48.774;8.732;2024-01-30T14:32:59;1.57;;;1.47;;
8001;SDS011;4046;48.774;8.732;2024-01-30T14:35:28;1.60;;;1.50;;
8001;SDS011;4046;48.774;8.732;2024-01-30T14:38:15;1.70;;;1.60;;
8001;SDS011;4046;48.774;8.732;2024-01-30T14:40:47;1.50;;;1.40;;
8001;SDS011;4046;48.774;8.732;2024-01-30T14:43:22;1.70;;;1.60;;
8001;SDS011;4046;48.774;8.732;2024-01-30T14:45:58;1.70;;;1.60;;
8001;SDS011;4046;48.774;8.732;2024-01-30T14:48:26;1.90;;;1.80;;
8001;SDS011;4046;48.774;8.732;2024-01-30T14:50:56;1.50;;;1.40;;
8001;SDS011;4046;48.774;8.732;2024-01-30T14:53:31;1.63;;;1.53;;
8001;SDS011;4046;48.774;8.732;2024-01-30T14:56:28;1.60;;;1.50;;
8001;SDS011;4046;48.774;8.732;2024-01-30T14:58:54;1.70;;;1.60;;
8001;SDS011;4046;48.774;8.732;2024-01-30T15:01:41;1.70;;;1.60;;
8001;SDS011;4046;48.774;8.732;2024-01-30T15:06:53;1.60;;;1.50;;
8001;SDS011;4046;48.774;8.732;2024-01-30T15:09:30;1.60;;;1.50;;
8001;SDS011;4046;48.774;8.732;2024-01-30T15:12:02;1.40;;;1.30;;
8001;SDS011;4046;48.774;8.732;2024-01-30T15:14:40;1.60;;;1.50;;
8001;SDS011;4046;48.774;8.732;2024-01-30T15:17:05;1.70;;;1.60;;
8001;SDS011;4046;48.774;8.732;2024-01-30T15:19:31;1.80;;;1.70;;
8001;SDS011;4046;48.774;8.732;2024-01-30T15:24:58;1.80;;;1.70;;
8001;SDS011;4046;48.774;8.732;2024-01-30T15:27:26;1.60;;;1.50;;
8001;SDS011;4046;48.774;8.732;2024-01-30T15:29:52;1.80;;;1.70;;
8001;SDS011;4046;48.774;8.732;2024-01-30T15:32:27;1.47;;;1.30;;
8001;SDS011;4046;48.774;8.732;2024-01-30T15:35:00;1.70;;;1.60;;
8001;SDS011;4046;48.774;8.732;2024-01-30T15:37:36;1.60;;;1.50;;
8001;SDS011;4046;48.774;8.732;2024-01-30T15:40:12;1.50;;;1.40;;
8001;SDS011;4046;48.774;8.732;2024-01-30T15:42:38;1.80;;;1.70;;
8001;SDS011;4046;48.774;8.732;2024-01-30T15:45:13;1.77;;;1.67;;
8001;SDS011;4046;48.774;8.732;2024-01-30T15:47:39;1.60;;;1.50;;
8001;SDS011;4046;48.774;8.732;2024-01-30T15:50:05;1.70;;;1.60;;
8001;SDS011;4046;48.774;8.732;2024-01-30T15:52:31;1.80;;;1.70;;
8001;SDS011;4046;48.774;8.732;2024-01-30T15:55:33;1.70;;;1.60;;
8001;SDS011;4046;48.774;8.732;2024-01-30T15:57:59;1.90;;;1.80;;
8001;SDS011;4046;48.774;8.732;2024-01-30T16:00:43;1.70;;;1.60;;
8001;SDS011;4046;48.774;8.732;2024-01-30T16:03:09;1.63;;;1.53;;
8001;SDS011;4046;48.774;8.732;2024-01-30T16:08:50;1.70;;;1.60;;
8001;SDS011;4046;48.774;8.732;2024-01-30T16:11:16;1.73;;;1.63;;
8001;SDS011;4046;48.774;8.732;2024-01-30T16:13:59;1.77;;;1.67;;
8001;SDS011;4046;48.774;8.732;2024-01-30T16:16:28;1.87;;;1.77;;
8001;SDS011;4046;48.774;8.732;2024-01-30T16:19:15;2.13;;;1.93;;
8001;SDS011;4046;48.774;8.732;2024-01-30T16:21:44;1.93;;;1.83;;
8001;SDS011;4046;48.774;8.732;2024-01-30T16:24:11;1.77;;;1.67;;
8001;SDS011;4046;48.774;8.732;2024-01-30T16:26:55;1.60;;;1.50;;
8001;SDS011;4046;48.774;8.732;2024-01-30T16:29:45;1.70;;;1.60;;
8001;SDS011;4046;48.774;8.732;2024-01-30T16:32:12;1.97;;;1.87;;
8001;SDS011;4046;48.774;8.732;2024-01-30T16:35:23;2.60;;;1.90;;
8001;SDS011;4046;48.774;8.732;2024-01-30T16:37:49;2.00;;;1.90;;
8001;SDS011;4046;48.774;8.732;2024-01-30T16:40:30;1.87;;;1.77;;
8001;SDS011;4046;48.774;8.732;2024-01-30T16:43:23;2.03;;;1.90;;
8001;SDS011;4046;48.774;8.732;2024-01-30T16:45:58;2.27;;;2.07;;
8001;SDS011;4046;48.774;8.732;2024-01-30T16:48:34;2.00;;;1.90;;
8001;SDS011;4046;48.774;8.732;2024-01-30T16:51:00;2.40;;;2.20;;
8001;SDS011;4046;48.774;8.732;2024-01-30T16:53:26;1.90;;;1.80;;
8001;SDS011;4046;48.774;8.732;2024-01-30T16:55:52;2.03;;;1.93;;
8001;SDS011;4046;48.774;8.732;2024-01-30T16:58:37;1.93;;;1.83;;
8001;SDS011;4046;48.774;8.732;2024-01-30T17:01:03;4.07;;;2.70;;
8001;SDS011;4046;48.774;8.732;2024-01-30T17:03:28;2.90;;;2.70;;
8001;SDS011;4046;48.774;8.732;2024-01-30T17:05:54;3.30;;;3.10;;
8001;SDS011;4046;48.774;8.732;2024-01-30T17:08:31;3.90;;;3.60;;
8001;SDS011;4046;48.774;8.732;2024-01-30T17:11:20;3.67;;;3.37;;
8001;SDS011;4046;48.774;8.732;2024-01-30T17:13:55;3.60;;;3.30;;
8001;SDS011;4046;48.774;8.732;2024-01-30T17:16:42;3.30;;;2.90;;
8001;SDS011;4046;48.774;8.732;2024-01-30T17:19:23;3.33;;;3.03;;
8001;SDS011;4046;48.774;8.732;2024-01-30T17:22:27;3.33;;;3.13;;
8001;SDS011;4046;48.774;8.732;2024-01-30T17:25:22;4.30;;;3.00;;
8001;SDS011;4046;48.774;8.732;2024-01-30T17:28:00;3.40;;;3.20;;
8001;SDS011;4046;48.774;8.732;2024-01-30T17:30:42;3.07;;;2.87;;
8001;SDS011;4046;48.774;8.732;2024-01-30T17:33:13;2.90;;;2.70;;
8001;SDS011;4046;48.774;8.732;2024-01-30T17:35:43;3.17;;;2.97;;
8001;SDS011;4046;48.774;8.732;2024-01-30T17:41:34;2.97;;;2.73;;
8001;SDS011;4046;48.774;8.732;2024-01-30T17:44:12;3.83;;;3.37;;
8001;SDS011;4046;48.774;8.732;2024-01-30T17:47:01;2.97;;;2.77;;
8001;SDS011;4046;48.774;8.732;2024-01-30T17:50:09;2.87;;;2.67;;
8001;SDS011;4046;48.774;8.732;2024-01-30T17:52:35;3.07;;;2.53;;
8001;SDS011;4046;48.774;8.732;2024-01-30T17:55:35;2.80;;;2.60;;
8001;SDS011;4046;48.774;8.732;2024-01-30T18:01:00;3.00;;;2.80;;
8001;SDS011;4046;48.774;8.732;2024-01-30T18:03:36;2.70;;;2.50;;
8001;SDS011;4046;48.774;8.732;2024-01-30T18:06:02;3.47;;;3.10;;
8001;SDS011;4046;48.774;8.732;2024-01-30T18:08:29;4.27;;;2.50;;
8001;SDS011;4046;48.774;8.732;2024-01-30T18:11:13;4.80;;;3.00;;
8001;SDS011;4046;48.774;8.732;2024-01-30T18:13:39;4.43;;;3.33;;
8001;SDS011;4046;48.774;8.732;2024-01-30T18:16:05;4.00;;;3.60;;
8001;SDS011;4046;48.774;8.732;2024-01-30T18:18:37;3.53;;;3.23;;
8001;SDS011;4046;48.774;8.732;2024-01-30T18:21:27;6.97;;;3.73;;
8001;SDS011;4046;48.774;8.732;2024-01-30T18:27:25;3.30;;;3.00;;
8001;SDS011;4046;48.774;8.732;2024-01-30T18:29:51;7.17;;;3.70;;
8001;SDS011;4046;48.774;8.732;2024-01-30T18:32:17;5.37;;;3.70;;
8001;SDS011;4046;48.774;8.732;2024-01-30T18:38:24;6.07;;;3.67;;
8001;SDS011;4046;48.774;8.732;2024-01-30T18:40:53;3.67;;;3.30;;
8001;SDS011;4046;48.774;8.732;2024-01-30T18:43:22;4.23;;;3.83;;
8001;SDS011;4046;48.774;8.732;2024-01-30T18:45:52;4.70;;;3.50;;
8001;SDS011;4046;48.774;8.732;2024-01-30T18:48:54;3.60;;;3.30;;
8001;SDS011;4046;48.774;8.732;2024-01-30T18:52:23;3.53;;;3.33;;
8001;SDS011;4046;48.774;8.732;2024-01-30T18:54:54;4.03;;;3.00;;
8001;SDS011;4046;48.774;8.732;2024-01-30T19:01:22;3.60;;;3.30;;
8001;SDS011;4046;48.774;8.732;2024-01-30T19:03:51;3.23;;;2.93;;
8001;SDS011;4046;48.774;8.732;2024-01-30T19:06:38;4.33;;;3.33;;
8001;SDS011;4046;48.774;8.732;2024-01-30T19:09:28;3.43;;;3.13;;
8001;SDS011;4046;48.774;8.732;2024-01-30T19:12:03;3.40;;;3.20;;
8001;SDS011;4046;48.774;8.732;2024-01-30T19:14:30;2.83;;;2.63;;
8001;SDS011;4046;48.774;8.732;2024-01-30T19:16:59;2.90;;;2.70;;
8001;SDS011;4046;48.774;8.732;2024-01-30T19:19:35;4.23;;;3.20;;
8001;SDS011;4046;48.774;8.732;2024-01-30T19:22:07;3.90;;;3.20;;
8001;SDS011;4046;48.774;8.732;2024-01-30T19:24:36;2.63;;;2.43;;
8001;SDS011;4046;48.774;8.732;2024-01-30T19:27:05;4.20;;;3.80;;
8001;SDS011;4046;48.774;8.732;2024-01-30T19:29:37;3.60;;;3.30;;
8001;SDS011;4046;48.774;8.732;2024-01-30T19:32:07;2.60;;;2.40;;
8001;SDS011;4046;48.774;8.732;2024-01-30T19:34:40;2.67;;;2.47;;
8001;SDS011;4046;48.774;8.732;2024-01-30T19:37:22;3.67;;;3.37;;
8001;SDS011;4046;48.774;8.732;2024-01-30T19:40:26;3.57;;;3.30;;
8001;SDS011;4046;48.774;8.732;2024-01-30T19:49:54;3.10;;;2.90;;
8001;SDS011;4046;48.774;8.732;2024-01-30T19:52:29;2.83;;;2.63;;
8001;SDS011;4046;48.774;8.732;2024-01-30T19:55:01;2.63;;;2.43;;
8001;SDS011;4046;48.774;8.732;2024-01-30T19:57:36;2.60;;;2.40;;
8001;SDS011;4046;48.774;8.732;2024-01-30T20:00:12;2.90;;;2.70;;
8001;SDS011;4046;48.774;8.732;2024-01-30T20:03:02;3.10;;;2.90;;
8001;SDS011;4046;48.774;8.732;2024-01-30T20:05:30;2.87;;;2.67;;
8001;SDS011;4046;48.774;8.732;2024-01-30T20:08:03;3.17;;;2.87;;
8001;SDS011;4046;48.774;8.732;2024-01-30T20:10:31;3.07;;;2.87;;
8001;SDS011;4046;48.774;8.732;2024-01-30T20:16:05;2.53;;;2.40;;
8001;SDS011;4046;48.774;8.732;2024-01-30T20:18:35;2.47;;;2.27;;
8001;SDS011;4046;48.774;8.732;2024-01-30T20:22:08;2.53;;;2.33;;
8001;SDS011;4046;48.774;8.732;2024-01-30T20:25:05;2.93;;;2.73;;
8001;SDS011;4046;48.774;8.732;2024-01-30T20:27:37;3.00;;;2.80;;
8001;SDS011;4046;48.774;8.732;2024-01-30T20:30:54;2.90;;;2.70;;
8001;SDS011;4046;48.774;8.732;2024-01-30T20:33:57;2.93;;;2.73;;
8001;SDS011;4046;48.774;8.732;2024-01-30T20:36:42;2.43;;;2.23;;
8001;SDS011;4046;48.774;8.732;2024-01-30T20:39:35;2.40;;;2.20;;
8001;SDS011;4046;48.774;8.732;2024-01-30T20:42:04;2.60;;;2.40;;
8001;SDS011;4046;48.774;8.732;2024-01-30T20:44:36;2.37;;;2.27;;
8001;SDS011;4046;48.774;8.732;2024-01-30T20:47:05;2.30;;;2.20;;
8001;SDS011;4046;48.774;8.732;2024-01-30T20:50:17;2.60;;;2.40;;
8001;SDS011;4046;48.774;8.732;2024-01-30T20:52:46;2.50;;;2.33;;
8001;SDS011;4046;48.774;8.732;2024-01-30T20:55:15;2.50;;;2.30;;
8001;SDS011;4046;48.774;8.732;2024-01-30T20:58:20;4.10;;;2.57;;
8001;SDS011;4046;48.774;8.732;2024-01-30T21:00:49;2.33;;;2.13;;
8001;SDS011;4046;48.774;8.732;2024-01-30T21:03:51;2.67;;;2.47;;
8001;SDS011;4046;48.774;8.732;2024-01-30T21:07:25;2.47;;;2.27;;
8001;SDS011;4046;48.774;8.732;2024-01-30T21:16:44;2.33;;;2.13;;
8001;SDS011;4046;48.774;8.732;2024-01-30T21:19:53;2.60;;;2.40;;